sensor_id;sensor_type;location;lat;lon;timestamp;temperature;humidity
21312;DHT22;18076;52.154;10.570;2023-04-06T00:14:48;1.60;99.90
21312;DHT22;18076;52.154;10.570;2023-04-06T00:17:13;1.60;99.90
21312;DHT22;18076;52.154;10.570;2023-04-06T00:19:39;1.50;99.90
21312;DHT22;18076;52.154;10.570;2023-04-06T00:22:04;1.50;99.90
21312;DHT22;18076;52.154;10.570;2023-04-06T00:24:30;1.50;99.90
21312;DHT22;18076;52.154;10.570;2023-04-06T00:26:55;1.50;99.90
21312;DHT22;18076;52.154;10.570;2023-04-06T00:29:57;1.50;99.90
21312;DHT22;18076;52.154;10.570;2023-04-06T00:32:38;1.50;99.90
21312;DHT22;18076;52.154;10.570;2023-04-06T00:38:31;1.40;99.90
21312;DHT22;18076;52.154;10.570;2023-04-06T00:41:15;1.30;99.90
21312;DHT22;18076;52.154;10.570;2023-04-06T00:47:09;1.10;99.90
21312;DHT22;18076;52.154;10.570;2023-04-06T00:49:35;1.00;99.90
21312;DHT22;18076;52.154;10.570;2023-04-06T00:52:00;0.90;99.90
21312;DHT22;18076;52.154;10.570;2023-04-06T00:54:29;0.80;99.90
21312;DHT22;18076;52.154;10.570;2023-04-06T00:56:56;0.80;99.90
21312;DHT22;18076;52.154;10.570;2023-04-06T00:59:21;0.70;99.90
21312;DHT22;18076;52.154;10.570;2023-04-06T01:01:47;0.50;99.90
21312;DHT22;18076;52.154;10.570;2023-04-06T01:04:13;0.50;99.90
21312;DHT22;18076;52.154;10.570;2023-04-06T01:06:38;0.50;99.90
21312;DHT22;18076;52.154;10.570;2023-04-06T01:09:05;0.50;99.90
21312;DHT22;18076;52.154;10.570;2023-04-06T01:11:30;0.60;99.90
21312;DHT22;18076;52.154;10.570;2023-04-06T01:13:56;0.60;99.90
21312;DHT22;18076;52.154;10.570;2023-04-06T01:16:22;0.50;99.90
21312;DHT22;18076;52.154;10.570;2023-04-06T01:18:48;0.60;99.90
21312;DHT22;18076;52.154;10.570;2023-04-06T01:21:13;0.60;99.90
21312;DHT22;18076;52.154;10.570;2023-04-06T01:23:44;0.40;99.90
21312;DHT22;18076;52.154;10.570;2023-04-06T01:26:10;0.40;99.90
21312;DHT22;18076;52.154;10.570;2023-04-06T01:28:39;0.40;99.90
21312;DHT22;18076;52.154;10.570;2023-04-06T01:37:28;0.40;99.90
21312;DHT22;18076;52.154;10.570;2023-04-06T01:39:55;0.40;99.90
21312;DHT22;18076;52.154;10.570;2023-04-06T01:42:21;0.40;99.90
21312;DHT22;18076;52.154;10.570;2023-04-06T01:44:46;0.40;99.90
21312;DHT22;18076;52.154;10.570;2023-04-06T01:47:12;0.40;99.90
21312;DHT22;18076;52.154;10.570;2023-04-06T01:49:37;0.40;99.90
21312;DHT22;18076;52.154;10.570;2023-04-06T01:52:03;0.40;99.90
21312;DHT22;18076;52.154;10.570;2023-04-06T01:54:29;0.40;99.90
21312;DHT22;18076;52.154;10.570;2023-04-06T01:56:54;0.30;99.90
21312;DHT22;18076;52.154;10.570;2023-04-06T01:59:20;0.40;99.90
21312;DHT22;18076;52.154;10.570;2023-04-06T02:01:58;0.40;99.90
21312;DHT22;18076;52.154;10.570;2023-04-06T02:04:30;0.40;99.90
21312;DHT22;18076;52.154;10.570;2023-04-06T02:07:43;0.40;99.90
21312;DHT22;18076;52.154;10.570;2023-04-06T02:13:51;0.30;99.90
21312;DHT22;18076;52.154;10.570;2023-04-06T02:16:16;0.20;99.90
21312;DHT22;18076;52.154;10.570;2023-04-06T02:18:42;0.20;99.90
21312;DHT22;18076;52.154;10.570;2023-04-06T02:21:07;0.10;99.90
21312;DHT22;18076;52.154;10.570;2023-04-06T02:23:33;0.10;99.90
21312;DHT22;18076;52.154;10.570;2023-04-06T02:25:58;0.10;99.90
21312;DHT22;18076;52.154;10.570;2023-04-06T02:28:24;0.10;99.90
21312;DHT22;18076;52.154;10.570;2023-04-06T02:31:04;0.10;99.90
21312;DHT22;18076;52.154;10.570;2023-04-06T02:33:29;0.10;99.90
21312;DHT22;18076;52.154;10.570;2023-04-06T02:35:55;0.10;99.90
21312;DHT22;18076;52.154;10.570;2023-04-06T02:38:21;0.00;99.90
21312;DHT22;18076;52.154;10.570;2023-04-06T02:40:46;0.00;99.90
21312;DHT22;18076;52.154;10.570;2023-04-06T02:43:12;0.00;99.90
21312;DHT22;18076;52.154;10.570;2023-04-06T02:45:37;0.00;99.90
21312;DHT22;18076;52.154;10.570;2023-04-06T02:48:03;0.00;99.90
21312;DHT22;18076;52.154;10.570;2023-04-06T02:50:28;0.00;99.90
21312;DHT22;18076;52.154;10.570;2023-04-06T02:53:04;0.00;99.90
21312;DHT22;18076;52.154;10.570;2023-04-06T02:55:35;-0.10;99.90
21312;DHT22;18076;52.154;10.570;2023-04-06T02:58:11;-0.20;99.90
21312;DHT22;18076;52.154;10.570;2023-04-06T03:00:37;-0.20;99.90
21312;DHT22;18076;52.154;10.570;2023-04-06T03:03:02;-0.10;99.90
21312;DHT22;18076;52.154;10.570;2023-04-06T03:05:28;-0.10;99.90
21312;DHT22;18076;52.154;10.570;2023-04-06T03:07:53;-0.20;99.90
21312;DHT22;18076;52.154;10.570;2023-04-06T03:10:19;-0.20;99.90
21312;DHT22;18076;52.154;10.570;2023-04-06T03:12:45;-0.20;99.90
21312;DHT22;18076;52.154;10.570;2023-04-06T03:15:10;-0.20;99.90
21312;DHT22;18076;52.154;10.570;2023-04-06T03:17:36;-0.20;99.90
21312;DHT22;18076;52.154;10.570;2023-04-06T03:20:02;-0.20;99.90
21312;DHT22;18076;52.154;10.570;2023-04-06T03:22:28;-0.20;99.90
21312;DHT22;18076;52.154;10.570;2023-04-06T03:24:54;-0.20;99.90
21312;DHT22;18076;52.154;10.570;2023-04-06T03:27:20;-0.20;99.90
21312;DHT22;18076;52.154;10.570;2023-04-06T03:29:45;-0.30;99.90
21312;DHT22;18076;52.154;10.570;2023-04-06T03:32:11;-0.30;99.90
21312;DHT22;18076;52.154;10.570;2023-04-06T03:34:37;-0.30;99.90
21312;DHT22;18076;52.154;10.570;2023-04-06T03:37:02;-0.30;99.90
21312;DHT22;18076;52.154;10.570;2023-04-06T03:39:28;-0.40;99.90
21312;DHT22;18076;52.154;10.570;2023-04-06T03:41:57;-0.40;99.90
21312;DHT22;18076;52.154;10.570;2023-04-06T03:44:22;-0.40;99.90
21312;DHT22;18076;52.154;10.570;2023-04-06T03:46:48;-0.40;99.90
21312;DHT22;18076;52.154;10.570;2023-04-06T03:49:13;-0.40;99.90
21312;DHT22;18076;52.154;10.570;2023-04-06T03:51:39;-0.40;99.90
21312;DHT22;18076;52.154;10.570;2023-04-06T03:54:04;-0.40;99.90
21312;DHT22;18076;52.154;10.570;2023-04-06T03:56:30;-0.40;99.90
21312;DHT22;18076;52.154;10.570;2023-04-06T03:58:55;-0.30;99.90
21312;DHT22;18076;52.154;10.570;2023-04-06T04:01:21;-0.30;99.90
21312;DHT22;18076;52.154;10.570;2023-04-06T04:03:47;-0.40;99.90
21312;DHT22;18076;52.154;10.570;2023-04-06T04:06:12;-0.40;99.90
21312;DHT22;18076;52.154;10.570;2023-04-06T04:08:38;-0.40;99.90
21312;DHT22;18076;52.154;10.570;2023-04-06T04:11:03;-0.50;99.90
21312;DHT22;18076;52.154;10.570;2023-04-06T04:13:29;-0.50;99.90
21312;DHT22;18076;52.154;10.570;2023-04-06T04:15:54;-0.50;99.90
21312;DHT22;18076;52.154;10.570;2023-04-06T04:18:20;-0.50;99.90
21312;DHT22;18076;52.154;10.570;2023-04-06T04:20:46;-0.60;99.90
21312;DHT22;18076;52.154;10.570;2023-04-06T04:23:11;-0.60;99.90
21312;DHT22;18076;52.154;10.570;2023-04-06T04:25:37;-0.60;99.90
21312;DHT22;18076;52.154;10.570;2023-04-06T04:28:02;-0.60;99.90
21312;DHT22;18076;52.154;10.570;2023-04-06T04:30:28;-0.60;99.90
21312;DHT22;18076;52.154;10.570;2023-04-06T04:32:53;-0.70;99.90
21312;DHT22;18076;52.154;10.570;2023-04-06T04:35:19;-0.70;99.90
21312;DHT22;18076;52.154;10.570;2023-04-06T04:37:45;-0.70;99.90
21312;DHT22;18076;52.154;10.570;2023-04-06T04:40:11;-0.70;99.90
21312;DHT22;18076;52.154;10.570;2023-04-06T04:42:36;-0.70;99.90
21312;DHT22;18076;52.154;10.570;2023-04-06T04:45:05;-0.70;99.90
21312;DHT22;18076;52.154;10.570;2023-04-06T04:47:30;-0.70;99.90
21312;DHT22;18076;52.154;10.570;2023-04-06T04:49:56;-0.70;99.90
21312;DHT22;18076;52.154;10.570;2023-04-06T04:52:21;-0.70;99.90
21312;DHT22;18076;52.154;10.570;2023-04-06T04:54:47;-0.70;99.90
21312;DHT22;18076;52.154;10.570;2023-04-06T04:57:13;-0.70;99.90
21312;DHT22;18076;52.154;10.570;2023-04-06T04:59:38;-0.70;99.90
21312;DHT22;18076;52.154;10.570;2023-04-06T05:02:04;-0.80;99.90
21312;DHT22;18076;52.154;10.570;2023-04-06T05:04:29;-0.60;99.90
21312;DHT22;18076;52.154;10.570;2023-04-06T05:07:08;-0.30;99.90
21312;DHT22;18076;52.154;10.570;2023-04-06T05:09:34;0.10;99.90
21312;DHT22;18076;52.154;10.570;2023-04-06T05:12:00;0.50;99.90
21312;DHT22;18076;52.154;10.570;2023-04-06T05:14:26;0.70;99.90
21312;DHT22;18076;52.154;10.570;2023-04-06T05:16:52;0.90;99.90
21312;DHT22;18076;52.154;10.570;2023-04-06T05:19:18;1.00;99.90
21312;DHT22;18076;52.154;10.570;2023-04-06T05:21:44;1.00;99.90
21312;DHT22;18076;52.154;10.570;2023-04-06T05:24:09;1.10;99.90
21312;DHT22;18076;52.154;10.570;2023-04-06T05:26:35;1.10;99.90
21312;DHT22;18076;52.154;10.570;2023-04-06T05:29:01;1.20;99.90
21312;DHT22;18076;52.154;10.570;2023-04-06T05:31:26;1.20;99.90
21312;DHT22;18076;52.154;10.570;2023-04-06T05:33:52;1.20;99.90
21312;DHT22;18076;52.154;10.570;2023-04-06T05:36:17;1.00;99.90
21312;DHT22;18076;52.154;10.570;2023-04-06T05:38:43;0.90;99.90
21312;DHT22;18076;52.154;10.570;2023-04-06T05:41:08;0.80;99.90
21312;DHT22;18076;52.154;10.570;2023-04-06T05:43:35;0.90;99.90
21312;DHT22;18076;52.154;10.570;2023-04-06T05:46:00;0.90;99.90
21312;DHT22;18076;52.154;10.570;2023-04-06T05:48:26;1.00;99.90
21312;DHT22;18076;52.154;10.570;2023-04-06T05:50:51;1.10;99.90
21312;DHT22;18076;52.154;10.570;2023-04-06T05:53:17;1.00;99.90
21312;DHT22;18076;52.154;10.570;2023-04-06T05:55:42;1.10;99.90
21312;DHT22;18076;52.154;10.570;2023-04-06T05:58:08;1.30;99.90
21312;DHT22;18076;52.154;10.570;2023-04-06T06:00:34;1.50;99.90
21312;DHT22;18076;52.154;10.570;2023-04-06T06:03:00;2.00;99.90
21312;DHT22;18076;52.154;10.570;2023-04-06T06:05:25;2.50;99.90
21312;DHT22;18076;52.154;10.570;2023-04-06T06:07:51;2.70;99.90
21312;DHT22;18076;52.154;10.570;2023-04-06T06:10:17;2.90;99.90
21312;DHT22;18076;52.154;10.570;2023-04-06T06:12:42;3.30;99.90
21312;DHT22;18076;52.154;10.570;2023-04-06T06:15:08;3.60;99.90
21312;DHT22;18076;52.154;10.570;2023-04-06T06:17:34;3.90;99.90
21312;DHT22;18076;52.154;10.570;2023-04-06T06:19:59;4.00;99.90
21312;DHT22;18076;52.154;10.570;2023-04-06T06:22:25;4.30;99.90
21312;DHT22;18076;52.154;10.570;2023-04-06T06:24:50;4.70;99.90
21312;DHT22;18076;52.154;10.570;2023-04-06T06:27:16;4.80;99.90
21312;DHT22;18076;52.154;10.570;2023-04-06T06:29:41;4.80;99.90
21312;DHT22;18076;52.154;10.570;2023-04-06T06:32:07;4.80;99.90
21312;DHT22;18076;52.154;10.570;2023-04-06T06:34:34;4.90;99.90
21312;DHT22;18076;52.154;10.570;2023-04-06T06:37:00;4.90;99.90
21312;DHT22;18076;52.154;10.570;2023-04-06T06:39:27;5.00;99.90
21312;DHT22;18076;52.154;10.570;2023-04-06T06:41:52;5.00;99.90
21312;DHT22;18076;52.154;10.570;2023-04-06T06:44:20;4.90;99.90
21312;DHT22;18076;52.154;10.570;2023-04-06T06:46:47;5.10;99.90
21312;DHT22;18076;52.154;10.570;2023-04-06T06:49:12;5.30;99.90
21312;DHT22;18076;52.154;10.570;2023-04-06T06:51:38;5.50;99.90
21312;DHT22;18076;52.154;10.570;2023-04-06T06:54:03;5.80;99.90
21312;DHT22;18076;52.154;10.570;2023-04-06T06:56:29;5.80;99.90
21312;DHT22;18076;52.154;10.570;2023-04-06T06:58:55;6.10;99.90
21312;DHT22;18076;52.154;10.570;2023-04-06T07:01:20;6.40;99.90
21312;DHT22;18076;52.154;10.570;2023-04-06T07:03:46;6.60;99.90
21312;DHT22;18076;52.154;10.570;2023-04-06T07:06:11;6.80;99.90
21312;DHT22;18076;52.154;10.570;2023-04-06T07:08:37;6.90;99.90
21312;DHT22;18076;52.154;10.570;2023-04-06T07:11:02;6.70;99.90
21312;DHT22;18076;52.154;10.570;2023-04-06T07:13:28;6.70;99.90
21312;DHT22;18076;52.154;10.570;2023-04-06T07:15:54;6.70;99.90
21312;DHT22;18076;52.154;10.570;2023-04-06T07:18:19;7.00;99.90
21312;DHT22;18076;52.154;10.570;2023-04-06T07:20:45;7.40;99.90
21312;DHT22;18076;52.154;10.570;2023-04-06T07:23:11;7.70;99.90
21312;DHT22;18076;52.154;10.570;2023-04-06T07:25:37;7.80;99.90
21312;DHT22;18076;52.154;10.570;2023-04-06T07:28:03;8.00;99.90
21312;DHT22;18076;52.154;10.570;2023-04-06T07:30:29;8.00;99.90
21312;DHT22;18076;52.154;10.570;2023-04-06T07:32:54;7.90;99.90
21312;DHT22;18076;52.154;10.570;2023-04-06T07:35:24;7.80;99.90
21312;DHT22;18076;52.154;10.570;2023-04-06T07:37:51;7.80;99.90
21312;DHT22;18076;52.154;10.570;2023-04-06T07:40:16;8.10;99.90
21312;DHT22;18076;52.154;10.570;2023-04-06T07:42:43;8.40;99.90
21312;DHT22;18076;52.154;10.570;2023-04-06T07:45:09;8.40;99.90
21312;DHT22;18076;52.154;10.570;2023-04-06T07:47:34;8.50;99.90
21312;DHT22;18076;52.154;10.570;2023-04-06T07:50:00;8.60;99.90
21312;DHT22;18076;52.154;10.570;2023-04-06T07:52:25;8.60;99.90
21312;DHT22;18076;52.154;10.570;2023-04-06T07:54:51;8.70;99.90
21312;DHT22;18076;52.154;10.570;2023-04-06T07:57:19;8.60;99.90
21312;DHT22;18076;52.154;10.570;2023-04-06T07:59:44;8.70;99.90
21312;DHT22;18076;52.154;10.570;2023-04-06T08:02:10;8.80;99.90
21312;DHT22;18076;52.154;10.570;2023-04-06T08:04:35;8.80;99.90
21312;DHT22;18076;52.154;10.570;2023-04-06T08:07:01;9.10;99.90
21312;DHT22;18076;52.154;10.570;2023-04-06T08:09:27;9.30;99.90
21312;DHT22;18076;52.154;10.570;2023-04-06T08:11:52;9.80;99.90
21312;DHT22;18076;52.154;10.570;2023-04-06T08:14:18;10.00;99.90
21312;DHT22;18076;52.154;10.570;2023-04-06T08:16:44;10.20;99.90
21312;DHT22;18076;52.154;10.570;2023-04-06T08:19:09;10.10;99.90
21312;DHT22;18076;52.154;10.570;2023-04-06T08:21:36;9.90;99.90
21312;DHT22;18076;52.154;10.570;2023-04-06T08:24:01;10.10;99.90
21312;DHT22;18076;52.154;10.570;2023-04-06T08:26:27;10.50;99.90
21312;DHT22;18076;52.154;10.570;2023-04-06T08:28:53;10.90;99.90
21312;DHT22;18076;52.154;10.570;2023-04-06T08:31:18;11.00;99.90
21312;DHT22;18076;52.154;10.570;2023-04-06T08:33:44;11.10;99.90
21312;DHT22;18076;52.154;10.570;2023-04-06T08:36:10;11.10;99.90
21312;DHT22;18076;52.154;10.570;2023-04-06T08:38:36;11.00;99.90
21312;DHT22;18076;52.154;10.570;2023-04-06T08:41:12;11.40;99.90
21312;DHT22;18076;52.154;10.570;2023-04-06T08:46:10;11.50;99.90
21312;DHT22;18076;52.154;10.570;2023-04-06T08:48:36;11.80;99.90
21312;DHT22;18076;52.154;10.570;2023-04-06T08:51:02;11.60;99.90
21312;DHT22;18076;52.154;10.570;2023-04-06T08:53:27;11.60;99.90
21312;DHT22;18076;52.154;10.570;2023-04-06T08:55:54;11.60;99.60
21312;DHT22;18076;52.154;10.570;2023-04-06T08:58:20;11.70;99.80
21312;DHT22;18076;52.154;10.570;2023-04-06T09:00:46;12.00;99.70
21312;DHT22;18076;52.154;10.570;2023-04-06T09:03:12;11.80;99.00
21312;DHT22;18076;52.154;10.570;2023-04-06T09:05:38;11.60;99.30
21312;DHT22;18076;52.154;10.570;2023-04-06T09:08:04;11.60;98.90
21312;DHT22;18076;52.154;10.570;2023-04-06T09:10:29;11.70;99.10
21312;DHT22;18076;52.154;10.570;2023-04-06T09:13:05;12.00;98.60
21312;DHT22;18076;52.154;10.570;2023-04-06T09:15:30;12.00;97.20
21312;DHT22;18076;52.154;10.570;2023-04-06T09:17:56;12.00;98.20
21312;DHT22;18076;52.154;10.570;2023-04-06T09:20:23;11.70;97.30
21312;DHT22;18076;52.154;10.570;2023-04-06T09:22:51;11.70;97.60
21312;DHT22;18076;52.154;10.570;2023-04-06T09:25:23;11.80;97.10
21312;DHT22;18076;52.154;10.570;2023-04-06T09:27:58;11.80;96.70
21312;DHT22;18076;52.154;10.570;2023-04-06T09:30:24;12.10;96.80
21312;DHT22;18076;52.154;10.570;2023-04-06T09:32:54;12.20;95.20
21312;DHT22;18076;52.154;10.570;2023-04-06T09:35:20;12.30;94.90
21312;DHT22;18076;52.154;10.570;2023-04-06T09:37:50;12.30;95.90
21312;DHT22;18076;52.154;10.570;2023-04-06T09:40:16;12.60;96.50
21312;DHT22;18076;52.154;10.570;2023-04-06T09:42:46;12.80;95.50
21312;DHT22;18076;52.154;10.570;2023-04-06T09:45:13;12.90;95.00
21312;DHT22;18076;52.154;10.570;2023-04-06T09:47:39;13.20;95.30
21312;DHT22;18076;52.154;10.570;2023-04-06T09:50:05;13.30;93.40
21312;DHT22;18076;52.154;10.570;2023-04-06T09:52:33;13.40;93.70
21312;DHT22;18076;52.154;10.570;2023-04-06T09:55:02;13.50;92.40
21312;DHT22;18076;52.154;10.570;2023-04-06T09:57:31;13.60;92.80
21312;DHT22;18076;52.154;10.570;2023-04-06T10:00:04;13.90;91.20
21312;DHT22;18076;52.154;10.570;2023-04-06T10:05:22;14.30;88.80
21312;DHT22;18076;52.154;10.570;2023-04-06T10:07:55;14.20;88.70
21312;DHT22;18076;52.154;10.570;2023-04-06T10:10:22;13.70;88.40
21312;DHT22;18076;52.154;10.570;2023-04-06T10:12:48;13.70;89.40
21312;DHT22;18076;52.154;10.570;2023-04-06T10:15:15;13.50;87.20
21312;DHT22;18076;52.154;10.570;2023-04-06T10:17:41;13.90;89.10
21312;DHT22;18076;52.154;10.570;2023-04-06T10:20:16;14.20;86.50
21312;DHT22;18076;52.154;10.570;2023-04-06T10:22:52;14.20;83.50
21312;DHT22;18076;52.154;10.570;2023-04-06T10:25:31;14.10;83.40
21312;DHT22;18076;52.154;10.570;2023-04-06T10:28:07;13.80;82.00
21312;DHT22;18076;52.154;10.570;2023-04-06T10:30:33;14.10;83.40
21312;DHT22;18076;52.154;10.570;2023-04-06T10:32:59;14.10;82.50
21312;DHT22;18076;52.154;10.570;2023-04-06T10:35:25;14.40;83.40
21312;DHT22;18076;52.154;10.570;2023-04-06T10:38:02;14.50;82.20
21312;DHT22;18076;52.154;10.570;2023-04-06T10:40:28;14.40;81.00
21312;DHT22;18076;52.154;10.570;2023-04-06T10:42:54;14.30;80.80
21312;DHT22;18076;52.154;10.570;2023-04-06T10:47:46;14.20;78.90
21312;DHT22;18076;52.154;10.570;2023-04-06T10:50:13;14.20;80.90
21312;DHT22;18076;52.154;10.570;2023-04-06T10:52:39;14.50;81.20
21312;DHT22;18076;52.154;10.570;2023-04-06T10:55:06;14.70;80.70
21312;DHT22;18076;52.154;10.570;2023-04-06T10:57:31;15.20;79.50
21312;DHT22;18076;52.154;10.570;2023-04-06T10:59:58;15.40;79.50
21312;DHT22;18076;52.154;10.570;2023-04-06T11:02:23;15.20;78.20
21312;DHT22;18076;52.154;10.570;2023-04-06T11:04:55;15.30;79.30
21312;DHT22;18076;52.154;10.570;2023-04-06T11:07:25;15.50;78.70
21312;DHT22;18076;52.154;10.570;2023-04-06T11:09:52;15.50;77.40
21312;DHT22;18076;52.154;10.570;2023-04-06T11:12:27;15.10;77.70
21312;DHT22;18076;52.154;10.570;2023-04-06T11:14:56;14.90;76.30
21312;DHT22;18076;52.154;10.570;2023-04-06T11:17:30;15.00;77.60
21312;DHT22;18076;52.154;10.570;2023-04-06T11:19:56;15.10;78.40
21312;DHT22;18076;52.154;10.570;2023-04-06T11:22:22;15.40;77.30
21312;DHT22;18076;52.154;10.570;2023-04-06T11:24:48;15.10;75.60
21312;DHT22;18076;52.154;10.570;2023-04-06T11:27:17;15.00;75.60
21312;DHT22;18076;52.154;10.570;2023-04-06T11:29:43;15.20;77.10
21312;DHT22;18076;52.154;10.570;2023-04-06T11:32:08;15.10;73.70
21312;DHT22;18076;52.154;10.570;2023-04-06T11:34:35;15.40;75.10
21312;DHT22;18076;52.154;10.570;2023-04-06T11:37:03;15.30;74.40
21312;DHT22;18076;52.154;10.570;2023-04-06T11:39:31;15.30;75.90
21312;DHT22;18076;52.154;10.570;2023-04-06T11:41:58;15.50;75.30
21312;DHT22;18076;52.154;10.570;2023-04-06T11:46:53;15.30;76.80
21312;DHT22;18076;52.154;10.570;2023-04-06T11:49:18;15.40;75.80
21312;DHT22;18076;52.154;10.570;2023-04-06T11:51:45;15.20;77.10
21312;DHT22;18076;52.154;10.570;2023-04-06T11:54:11;15.20;72.70
21312;DHT22;18076;52.154;10.570;2023-04-06T11:56:40;15.70;74.90
21312;DHT22;18076;52.154;10.570;2023-04-06T11:59:05;15.80;74.90
21312;DHT22;18076;52.154;10.570;2023-04-06T12:01:31;15.80;75.40
21312;DHT22;18076;52.154;10.570;2023-04-06T12:03:56;15.60;73.40
21312;DHT22;18076;52.154;10.570;2023-04-06T12:06:22;15.30;74.50
21312;DHT22;18076;52.154;10.570;2023-04-06T12:08:48;15.40;74.30
21312;DHT22;18076;52.154;10.570;2023-04-06T12:11:13;15.40;74.70
21312;DHT22;18076;52.154;10.570;2023-04-06T12:13:39;15.50;74.40
21312;DHT22;18076;52.154;10.570;2023-04-06T12:16:05;15.70;73.90
21312;DHT22;18076;52.154;10.570;2023-04-06T12:18:32;15.90;72.20
21312;DHT22;18076;52.154;10.570;2023-04-06T12:20:57;16.20;71.40
21312;DHT22;18076;52.154;10.570;2023-04-06T12:23:23;16.50;70.80
21312;DHT22;18076;52.154;10.570;2023-04-06T12:25:49;16.40;68.70
21312;DHT22;18076;52.154;10.570;2023-04-06T12:28:14;16.40;69.80
21312;DHT22;18076;52.154;10.570;2023-04-06T12:30:40;16.70;71.90
21312;DHT22;18076;52.154;10.570;2023-04-06T12:33:06;16.80;68.30
21312;DHT22;18076;52.154;10.570;2023-04-06T12:35:35;17.00;68.20
21312;DHT22;18076;52.154;10.570;2023-04-06T12:38:01;17.00;68.40
21312;DHT22;18076;52.154;10.570;2023-04-06T12:40:27;16.80;68.00
21312;DHT22;18076;52.154;10.570;2023-04-06T12:42:53;16.70;66.40
21312;DHT22;18076;52.154;10.570;2023-04-06T12:45:18;16.70;66.00
21312;DHT22;18076;52.154;10.570;2023-04-06T12:47:44;16.90;66.10
21312;DHT22;18076;52.154;10.570;2023-04-06T12:50:09;17.10;67.50
21312;DHT22;18076;52.154;10.570;2023-04-06T12:52:35;17.40;66.00
21312;DHT22;18076;52.154;10.570;2023-04-06T12:55:04;17.10;64.50
21312;DHT22;18076;52.154;10.570;2023-04-06T12:57:31;17.30;66.10
21312;DHT22;18076;52.154;10.570;2023-04-06T12:59:57;17.30;66.20
21312;DHT22;18076;52.154;10.570;2023-04-06T13:02:22;16.90;63.00
21312;DHT22;18076;52.154;10.570;2023-04-06T13:04:48;16.50;65.00
21312;DHT22;18076;52.154;10.570;2023-04-06T13:07:15;16.30;65.50
21312;DHT22;18076;52.154;10.570;2023-04-06T13:09:40;16.30;64.90
21312;DHT22;18076;52.154;10.570;2023-04-06T13:12:08;16.40;64.20
21312;DHT22;18076;52.154;10.570;2023-04-06T13:14:34;16.50;64.80
21312;DHT22;18076;52.154;10.570;2023-04-06T13:17:04;16.80;65.60
21312;DHT22;18076;52.154;10.570;2023-04-06T13:19:30;16.90;66.30
21312;DHT22;18076;52.154;10.570;2023-04-06T13:21:56;16.50;63.30
21312;DHT22;18076;52.154;10.570;2023-04-06T13:24:22;16.50;63.50
21312;DHT22;18076;52.154;10.570;2023-04-06T13:26:48;16.70;63.90
21312;DHT22;18076;52.154;10.570;2023-04-06T13:29:14;16.70;63.90
21312;DHT22;18076;52.154;10.570;2023-04-06T13:31:40;16.60;63.60
21312;DHT22;18076;52.154;10.570;2023-04-06T13:34:05;16.50;64.30
21312;DHT22;18076;52.154;10.570;2023-04-06T13:36:31;16.20;63.50
21312;DHT22;18076;52.154;10.570;2023-04-06T13:41:48;15.90;64.40
21312;DHT22;18076;52.154;10.570;2023-04-06T13:44:17;16.20;64.10
21312;DHT22;18076;52.154;10.570;2023-04-06T13:46:43;16.60;63.80
21312;DHT22;18076;52.154;10.570;2023-04-06T13:49:08;16.60;62.80
21312;DHT22;18076;52.154;10.570;2023-04-06T13:51:35;16.60;62.50
21312;DHT22;18076;52.154;10.570;2023-04-06T13:54:01;16.70;64.10
21312;DHT22;18076;52.154;10.570;2023-04-06T13:56:26;16.60;61.90
21312;DHT22;18076;52.154;10.570;2023-04-06T13:58:55;16.70;61.30
21312;DHT22;18076;52.154;10.570;2023-04-06T14:01:21;16.60;62.30
21312;DHT22;18076;52.154;10.570;2023-04-06T14:03:50;16.50;62.50
21312;DHT22;18076;52.154;10.570;2023-04-06T14:06:15;16.30;62.90
21312;DHT22;18076;52.154;10.570;2023-04-06T14:08:41;16.10;64.20
21312;DHT22;18076;52.154;10.570;2023-04-06T14:11:10;16.00;64.10
21312;DHT22;18076;52.154;10.570;2023-04-06T14:13:37;16.00;63.20
21312;DHT22;18076;52.154;10.570;2023-04-06T14:16:02;16.10;63.90
21312;DHT22;18076;52.154;10.570;2023-04-06T14:18:31;16.30;63.60
21312;DHT22;18076;52.154;10.570;2023-04-06T14:20:57;16.70;65.00
21312;DHT22;18076;52.154;10.570;2023-04-06T14:23:23;16.90;63.50
21312;DHT22;18076;52.154;10.570;2023-04-06T14:25:51;16.80;63.30
21312;DHT22;18076;52.154;10.570;2023-04-06T14:28:17;16.30;62.30
21312;DHT22;18076;52.154;10.570;2023-04-06T14:30:43;16.20;62.10
21312;DHT22;18076;52.154;10.570;2023-04-06T14:33:09;15.90;62.20
21312;DHT22;18076;52.154;10.570;2023-04-06T14:35:37;16.00;63.00
21312;DHT22;18076;52.154;10.570;2023-04-06T14:38:03;15.90;64.80
21312;DHT22;18076;52.154;10.570;2023-04-06T14:40:28;15.80;64.50
21312;DHT22;18076;52.154;10.570;2023-04-06T14:42:54;15.60;64.80
21312;DHT22;18076;52.154;10.570;2023-04-06T14:45:20;15.40;64.40
21312;DHT22;18076;52.154;10.570;2023-04-06T14:47:47;15.40;65.30
21312;DHT22;18076;52.154;10.570;2023-04-06T14:50:13;15.60;66.60
21312;DHT22;18076;52.154;10.570;2023-04-06T14:52:38;15.60;66.30
21312;DHT22;18076;52.154;10.570;2023-04-06T14:55:05;15.70;65.60
21312;DHT22;18076;52.154;10.570;2023-04-06T14:57:31;15.70;65.50
21312;DHT22;18076;52.154;10.570;2023-04-06T14:59:57;15.60;65.90
21312;DHT22;18076;52.154;10.570;2023-04-06T15:02:24;15.60;66.50
21312;DHT22;18076;52.154;10.570;2023-04-06T15:04:50;15.70;64.70
21312;DHT22;18076;52.154;10.570;2023-04-06T15:07:15;15.90;64.90
21312;DHT22;18076;52.154;10.570;2023-04-06T15:09:41;16.10;66.10
21312;DHT22;18076;52.154;10.570;2023-04-06T15:12:07;16.20;66.10
21312;DHT22;18076;52.154;10.570;2023-04-06T15:14:33;16.30;65.80
21312;DHT22;18076;52.154;10.570;2023-04-06T15:16:58;16.30;65.60
21312;DHT22;18076;52.154;10.570;2023-04-06T15:19:24;16.20;66.00
21312;DHT22;18076;52.154;10.570;2023-04-06T15:21:49;15.90;64.70
21312;DHT22;18076;52.154;10.570;2023-04-06T15:24:15;15.70;65.60
21312;DHT22;18076;52.154;10.570;2023-04-06T15:26:40;15.60;66.00
21312;DHT22;18076;52.154;10.570;2023-04-06T15:29:06;15.40;65.50
21312;DHT22;18076;52.154;10.570;2023-04-06T15:31:32;15.30;64.90
21312;DHT22;18076;52.154;10.570;2023-04-06T15:33:59;15.20;65.50
21312;DHT22;18076;52.154;10.570;2023-04-06T15:36:26;15.00;66.00
21312;DHT22;18076;52.154;10.570;2023-04-06T15:38:54;15.10;67.20
21312;DHT22;18076;52.154;10.570;2023-04-06T15:41:19;15.10;67.40
21312;DHT22;18076;52.154;10.570;2023-04-06T15:43:45;15.20;67.30
21312;DHT22;18076;52.154;10.570;2023-04-06T15:46:11;15.40;66.20
21312;DHT22;18076;52.154;10.570;2023-04-06T15:48:37;15.40;67.00
21312;DHT22;18076;52.154;10.570;2023-04-06T15:51:02;15.30;65.50
21312;DHT22;18076;52.154;10.570;2023-04-06T15:53:28;15.30;65.60
21312;DHT22;18076;52.154;10.570;2023-04-06T15:56:00;15.20;66.70
21312;DHT22;18076;52.154;10.570;2023-04-06T15:58:26;14.90;67.00
21312;DHT22;18076;52.154;10.570;2023-04-06T16:00:52;14.70;68.40
21312;DHT22;18076;52.154;10.570;2023-04-06T16:03:17;14.60;68.50